Championnat de France Moyenne Distance (WRE) BOURBACH-LE-BAS (68) - R

Date : 09/05/2026
Valeur du circuit : 6631527 point × seconde

Place Nom Licence Catégorie Club Temps CN à J-15 Valeur Points Différence Nouveau CN
1 RANNOU-SERINE Violette 39603 D16 3323NA 0:25:07 4620 6962340 4400 -220 4666
2 ROCHE Elana 34881 D16 4012NA 0:27:03 3704 6011592 4086 +382 4088
3 HARNIST Caroline 27540 D16 6803GE 0:27:15 4472 7311720 4056 -416 4459
4 DUFOUR Elise 31013 D16 2606AR 0:27:22 4698 7714116 4039 -659 4601
5 OIJID Sara 39993 D16 5402GE 0:28:25 3553 6057865 3889 +336 3853
6 JOUANILLOU Marine 42273 D16 3108OC 0:28:51 4174 7225194 3831 -343 4127
7 BONNIN Mélissa 36544 D16 3318NA 0:29:21 3526 6209286 3766 +240 3588
8 DOUNON MONCLA Alice 37071 D16 3308NA 0:32:18 4047 7843086 3422 -625 3832
9 DE LENNE Léna 40401 D16 0615PZ 0:32:18 2136 4139568 3422 +1286 2231
10 VADROT Maé 32525 D16 1303PZ 0:32:30 2689 5243550 3401 +712 2712
11 LE PORS Manon 41251 D16 4705NA 0:32:49 3971 7818899 3368 -603 4015
12 JANOD Maëlle 30928 D16 7305AR 0:33:02 3020 5985640 3346 +326 3085
13 LE DINH COSTE Mayleen 37109 D16 7807IF 0:33:43 2978 6024494 3278 +300 3324
14 VIGUET POUPELLOZ Ysaline 40457 D16 7311AR 0:33:56 4206 8563416 3257 -949 4231
15 OLIVIER Maïa 35045 D16 5116GE 0:34:23 3379 6970877 3215 -164 3410
16 GRAND Lauryne 47020 D16 0109AR 0:34:27 3319 6860373 3208 -111 3264
17 SKOWRONEK Pauline 33260 D16 2109BF 0:35:37 2915 6229355 3103 +188 3058
18 MUYARD Noémie 43520 D16 7404AR 0:36:05 2895 6267675 3063 +168 2982
19 PRIEUR Eva 39252 D16 7305AR 0:36:05 2168 4693720 3063 +895 2410
20 DECHAVANNE Margot 32682 D16 6911AR 0:36:14 3170 6891580 3050 -120 3253
21 COLLIOUD-MARICHALLOT Margot 34411 D16 0109AR 0:36:25 2251 4918435 3035 +784 2715
22 PERRIN Garance 36727 D16 2508BF 0:37:04 3292 7321408 2982 -310 3429
23 JACQUEMETTON Coraline 43743 D16 0111AR 0:37:13 3056 6824048 2970 -86 3199
24 DARRIEUTORT Eva 45810 D16 0109AR 0:37:58 3272 7453616 2911 -361 3175
25 AUGAGNEUR Alina 38174 D16 3105OC 0:40:00 2151 5162400 2763 +612 2324
26 LEBON Oriane 39923 D16 0111AR 0:40:25 2064 5005200 2735 +671 2100
27 ROBERT Léonie 38138 D16 5703GE 0:42:05 3160 7979000 2626 -534 3347
28 GRUOT Emilie 41284 D16 2105BF 0:42:30 2680 6834000 2601 -79 2731
29 DUBRULLE Pauline 45200 D16 6208HF 0:43:01 2782 7180342 2569 -213 2675
30 DUBOIS Manon 43552 D16 9105IF 0:43:08 2152 5569376 2562 +410 2438
31 KOLB Tifenn 41509 D16 6803GE 0:43:26 2988 7786728 2545 -443 3122
32 SEGRE Zoé 37188 D16 5906HF 0:43:38 3147 8238846 2533 -614 3204
33 LEMAIRE Satine 46466 D16 5116GE 0:44:02 2657 7019794 2510 -147 2703
34 TURC Pema 35391 D16 8404PZ 0:44:26 1934 5156044 2487 +553 2278
35 DUCHENE Manon 36857 D16 1307PZ 0:44:47 2104 5653448 2468 +364 2101
36 KUZU-LAGARDE Sélène 43360 D16 7512IF 0:45:10 2645 7167950 2447 -198 2565
37 FREY Chloé 30782 D16 6803GE 0:45:25 3329 9071525 2434 -895 3332
38 FERRE Anaig 44901 D16 0504PZ 0:45:53 2427 2409 -18 2458
39 MANOPOULOS Mathilde 26517 D16 0504PZ 0:46:16 2046 2389 +343 2178
40 ADERGHAL Eve 45349 D16 7512IF 0:46:37 2869 2371 -498 2869
41 LION Apolline 40385 D16 0207HF 0:48:30 2631 2279 -352 2547
42 ETCHEN Chloé 33901 D16 3319NA 0:48:31 2815 2278 -537 2914
43 MOTHERON Ambre 42425 D16 6208HF 0:49:01 2329 2255 -74 2266
44 RIVIERE Eline 43566 D16 3809AR 0:50:09 2016 2204 +188 2204
45 MOUGEL Albane 32885 D16 7807IF 0:50:37 2099 2184 +85 2127
46 PARISOT Morgane 40388 D16 0207HF 0:52:06 1997 2121 +124 2057
47 BOUIS Adèle 35848 D16 2604AR 0:52:35 2476 2102 -374 2476
48 GONSARD Solenn 43844 D16 9105IF 0:52:36 2069 2101 +32 2079
49 SANCHEZ Sarah 37653 D16 6008HF 0:54:40 2245 2022 -223 1819
50 FOREST Elsa 46933 D16 1403NM 0:55:30 1444 1991 +547 1991
51 SCHOULLER Loane 27765 D16 5703GE 1:02:38 2831 1765 -1066 2298
52 SCHNEIDER Rose 33692 D16 5116GE 1:04:18 2311 1719 -592 3090
53 BADOR Eloïse 35431 D16 0207HF 1:04:35 1942 1711 -231 1942
54 PAPPON Maëlle 42765 D16 3603CE 1:07:07 1954 1647 -307 1954
55 BARBIER Orlane 46463 D16 9105IF 1:09:05 1878 1600 -278 1878
MICHEL Hortense 45347 D16 7512IF pm 1838 0 1802